sensor_id;sensor_type;location;lat;lon;timestamp;P1;durP1;ratioP1;P2;durP2;ratioP2
28796;SDS011;24974;54.444;18.560;2023-05-17T00:01:53;15.15;;;7.28;;
28796;SDS011;24974;54.444;18.560;2023-05-17T00:04:25;18.38;;;6.95;;
28796;SDS011;24974;54.444;18.560;2023-05-17T00:06:56;15.13;;;7.60;;
28796;SDS011;24974;54.444;18.560;2023-05-17T00:09:27;18.98;;;6.70;;
28796;SDS011;24974;54.444;18.560;2023-05-17T00:11:58;17.35;;;6.75;;
28796;SDS011;24974;54.444;18.560;2023-05-17T00:14:29;18.10;;;6.57;;
28796;SDS011;24974;54.444;18.560;2023-05-17T00:17:00;16.58;;;7.10;;
28796;SDS011;24974;54.444;18.560;2023-05-17T00:19:31;12.60;;;7.13;;
28796;SDS011;24974;54.444;18.560;2023-05-17T00:22:01;12.82;;;6.97;;
28796;SDS011;24974;54.444;18.560;2023-05-17T00:24:32;18.15;;;7.35;;
28796;SDS011;24974;54.444;18.560;2023-05-17T00:27:03;21.23;;;7.13;;
28796;SDS011;24974;54.444;18.560;2023-05-17T00:29:35;17.23;;;6.63;;
28796;SDS011;24974;54.444;18.560;2023-05-17T00:32:07;15.00;;;7.03;;
28796;SDS011;24974;54.444;18.560;2023-05-17T00:34:38;13.05;;;6.93;;
28796;SDS011;24974;54.444;18.560;2023-05-17T00:37:09;14.70;;;6.45;;
28796;SDS011;24974;54.444;18.560;2023-05-17T00:39:39;18.85;;;7.10;;
28796;SDS011;24974;54.444;18.560;2023-05-17T00:42:10;13.48;;;7.03;;
28796;SDS011;24974;54.444;18.560;2023-05-17T00:44:42;17.95;;;7.30;;
28796;SDS011;24974;54.444;18.560;2023-05-17T00:47:13;16.98;;;7.00;;
28796;SDS011;24974;54.444;18.560;2023-05-17T00:49:43;16.60;;;6.43;;
28796;SDS011;24974;54.444;18.560;2023-05-17T00:52:15;16.25;;;6.50;;
28796;SDS011;24974;54.444;18.560;2023-05-17T00:54:46;13.00;;;6.47;;
28796;SDS011;24974;54.444;18.560;2023-05-17T00:57:17;14.10;;;6.70;;
28796;SDS011;24974;54.444;18.560;2023-05-17T00:59:48;13.77;;;6.35;;
28796;SDS011;24974;54.444;18.560;2023-05-17T06:49:54;14.15;;;4.10;;
28796;SDS011;24974;54.444;18.560;2023-05-17T06:52:25;13.30;;;3.80;;
28796;SDS011;24974;54.444;18.560;2023-05-17T06:54:56;11.43;;;3.72;;
28796;SDS011;24974;54.444;18.560;2023-05-17T06:57:27;13.30;;;4.20;;
28796;SDS011;24974;54.444;18.560;2023-05-17T06:59:58;16.55;;;4.38;;
28796;SDS011;24974;54.444;18.560;2023-05-17T07:02:28;12.63;;;3.92;;
28796;SDS011;24974;54.444;18.560;2023-05-17T07:05:00;14.35;;;4.07;;
28796;SDS011;24974;54.444;18.560;2023-05-17T07:07:31;10.07;;;3.88;;
28796;SDS011;24974;54.444;18.560;2023-05-17T07:10:02;13.35;;;4.45;;
28796;SDS011;24974;54.444;18.560;2023-05-17T07:12:36;12.80;;;4.03;;
28796;SDS011;24974;54.444;18.560;2023-05-17T07:15:08;14.02;;;4.43;;
28796;SDS011;24974;54.444;18.560;2023-05-17T07:17:39;14.52;;;4.35;;
28796;SDS011;24974;54.444;18.560;2023-05-17T07:20:10;13.57;;;4.60;;
28796;SDS011;24974;54.444;18.560;2023-05-17T07:22:42;20.10;;;4.00;;
28796;SDS011;24974;54.444;18.560;2023-05-17T07:25:12;16.40;;;4.72;;
28796;SDS011;24974;54.444;18.560;2023-05-17T07:27:45;11.82;;;4.50;;
28796;SDS011;24974;54.444;18.560;2023-05-17T07:30:15;9.48;;;4.03;;
28796;SDS011;24974;54.444;18.560;2023-05-17T07:32:46;18.25;;;4.82;;
28796;SDS011;24974;54.444;18.560;2023-05-17T07:35:17;16.52;;;4.38;;
28796;SDS011;24974;54.444;18.560;2023-05-17T07:37:48;11.65;;;4.45;;
28796;SDS011;24974;54.444;18.560;2023-05-17T07:40:19;18.08;;;4.38;;
28796;SDS011;24974;54.444;18.560;2023-05-17T07:42:51;12.98;;;4.20;;
28796;SDS011;24974;54.444;18.560;2023-05-17T07:45:22;14.13;;;5.00;;
28796;SDS011;24974;54.444;18.560;2023-05-17T07:47:53;11.35;;;4.25;;
28796;SDS011;24974;54.444;18.560;2023-05-17T07:50:24;15.40;;;4.75;;
28796;SDS011;24974;54.444;18.560;2023-05-17T07:52:55;15.50;;;4.65;;
28796;SDS011;24974;54.444;18.560;2023-05-17T07:55:26;13.90;;;4.72;;
28796;SDS011;24974;54.444;18.560;2023-05-17T07:57:57;13.60;;;4.25;;
28796;SDS011;24974;54.444;18.560;2023-05-17T08:00:28;12.13;;;4.63;;
28796;SDS011;24974;54.444;18.560;2023-05-17T08:03:00;15.05;;;4.68;;
28796;SDS011;24974;54.444;18.560;2023-05-17T08:05:31;14.68;;;5.13;;
28796;SDS011;24974;54.444;18.560;2023-05-17T08:08:01;14.43;;;4.40;;
28796;SDS011;24974;54.444;18.560;2023-05-17T08:10:33;14.43;;;5.00;;
28796;SDS011;24974;54.444;18.560;2023-05-17T08:13:07;20.73;;;5.03;;
28796;SDS011;24974;54.444;18.560;2023-05-17T08:15:38;12.18;;;4.60;;
28796;SDS011;24974;54.444;18.560;2023-05-17T08:18:09;11.70;;;4.15;;
28796;SDS011;24974;54.444;18.560;2023-05-17T08:20:40;20.40;;;4.68;;
28796;SDS011;24974;54.444;18.560;2023-05-17T08:23:11;13.18;;;4.60;;
28796;SDS011;24974;54.444;18.560;2023-05-17T08:25:41;14.07;;;4.68;;
28796;SDS011;24974;54.444;18.560;2023-05-17T08:28:12;14.57;;;4.53;;
28796;SDS011;24974;54.444;18.560;2023-05-17T08:30:43;16.52;;;4.82;;
28796;SDS011;24974;54.444;18.560;2023-05-17T08:33:14;15.73;;;4.90;;
28796;SDS011;24974;54.444;18.560;2023-05-17T08:35:45;15.82;;;5.25;;
28796;SDS011;24974;54.444;18.560;2023-05-17T08:38:16;16.42;;;4.68;;
28796;SDS011;24974;54.444;18.560;2023-05-17T08:40:53;12.70;;;4.43;;
28796;SDS011;24974;54.444;18.560;2023-05-17T08:43:24;16.75;;;4.70;;
28796;SDS011;24974;54.444;18.560;2023-05-17T08:45:56;21.27;;;4.85;;
28796;SDS011;24974;54.444;18.560;2023-05-17T08:48:28;10.15;;;5.85;;
28796;SDS011;24974;54.444;18.560;2023-05-17T08:51:06;20.75;;;5.13;;
28796;SDS011;24974;54.444;18.560;2023-05-17T08:53:37;15.07;;;4.38;;
28796;SDS011;24974;54.444;18.560;2023-05-17T08:56:08;18.73;;;5.38;;
28796;SDS011;24974;54.444;18.560;2023-05-17T08:58:42;14.95;;;4.43;;
28796;SDS011;24974;54.444;18.560;2023-05-17T09:01:14;14.68;;;4.05;;
28796;SDS011;24974;54.444;18.560;2023-05-17T09:03:46;15.98;;;4.95;;
28796;SDS011;24974;54.444;18.560;2023-05-17T09:06:21;15.48;;;4.95;;
28796;SDS011;24974;54.444;18.560;2023-05-17T09:08:53;15.55;;;4.30;;
28796;SDS011;24974;54.444;18.560;2023-05-17T09:11:25;15.63;;;4.15;;
28796;SDS011;24974;54.444;18.560;2023-05-17T09:14:05;17.15;;;4.72;;
28796;SDS011;24974;54.444;18.560;2023-05-17T09:16:37;14.05;;;4.32;;
28796;SDS011;24974;54.444;18.560;2023-05-17T09:19:08;18.20;;;4.43;;
28796;SDS011;24974;54.444;18.560;2023-05-17T09:21:46;14.85;;;3.60;;
28796;SDS011;24974;54.444;18.560;2023-05-17T09:24:26;11.27;;;3.67;;
28796;SDS011;24974;54.444;18.560;2023-05-17T09:27:00;16.65;;;4.35;;
28796;SDS011;24974;54.444;18.560;2023-05-17T09:29:32;17.45;;;3.92;;
28796;SDS011;24974;54.444;18.560;2023-05-17T09:32:11;16.25;;;3.90;;
28796;SDS011;24974;54.444;18.560;2023-05-17T09:34:47;14.40;;;3.72;;
28796;SDS011;24974;54.444;18.560;2023-05-17T09:37:18;19.67;;;3.88;;
28796;SDS011;24974;54.444;18.560;2023-05-17T09:39:50;13.73;;;4.20;;
28796;SDS011;24974;54.444;18.560;2023-05-17T09:42:21;9.88;;;3.13;;
28796;SDS011;24974;54.444;18.560;2023-05-17T09:44:55;16.17;;;4.05;;
28796;SDS011;24974;54.444;18.560;2023-05-17T09:47:29;8.77;;;2.83;;
28796;SDS011;24974;54.444;18.560;2023-05-17T09:50:01;11.18;;;3.45;;
28796;SDS011;24974;54.444;18.560;2023-05-17T09:52:34;9.25;;;3.10;;
28796;SDS011;24974;54.444;18.560;2023-05-17T09:55:06;12.23;;;3.30;;
28796;SDS011;24974;54.444;18.560;2023-05-17T09:57:40;11.18;;;2.78;;
28796;SDS011;24974;54.444;18.560;2023-05-17T10:00:11;16.42;;;2.80;;
28796;SDS011;24974;54.444;18.560;2023-05-17T10:02:45;9.63;;;3.30;;
28796;SDS011;24974;54.444;18.560;2023-05-17T10:05:19;13.57;;;3.20;;
28796;SDS011;24974;54.444;18.560;2023-05-17T10:07:50;8.70;;;2.85;;
28796;SDS011;24974;54.444;18.560;2023-05-17T10:10:24;10.10;;;2.72;;
28796;SDS011;24974;54.444;18.560;2023-05-17T10:12:57;9.73;;;2.88;;
28796;SDS011;24974;54.444;18.560;2023-05-17T10:15:30;12.63;;;2.83;;
28796;SDS011;24974;54.444;18.560;2023-05-17T10:18:02;10.48;;;2.25;;
28796;SDS011;24974;54.444;18.560;2023-05-17T10:20:33;12.20;;;2.95;;
28796;SDS011;24974;54.444;18.560;2023-05-17T10:23:06;9.23;;;2.30;;
28796;SDS011;24974;54.444;18.560;2023-05-17T10:25:37;6.60;;;2.33;;
28796;SDS011;24974;54.444;18.560;2023-05-17T10:28:09;8.45;;;2.53;;
28796;SDS011;24974;54.444;18.560;2023-05-17T10:30:42;11.70;;;2.58;;
28796;SDS011;24974;54.444;18.560;2023-05-17T10:33:13;9.43;;;2.70;;
28796;SDS011;24974;54.444;18.560;2023-05-17T10:35:46;6.13;;;2.30;;
28796;SDS011;24974;54.444;18.560;2023-05-17T10:38:20;10.00;;;2.85;;
28796;SDS011;24974;54.444;18.560;2023-05-17T10:40:53;11.13;;;3.13;;
28796;SDS011;24974;54.444;18.560;2023-05-17T10:43:25;10.80;;;2.55;;
28796;SDS011;24974;54.444;18.560;2023-05-17T10:46:01;9.77;;;3.15;;
28796;SDS011;24974;54.444;18.560;2023-05-17T10:48:33;9.88;;;2.55;;
28796;SDS011;24974;54.444;18.560;2023-05-17T10:51:06;13.50;;;3.42;;
28796;SDS011;24974;54.444;18.560;2023-05-17T10:54:19;6.20;;;2.35;;
28796;SDS011;24974;54.444;18.560;2023-05-17T10:56:46;12.15;;;3.13;;
28796;SDS011;24974;54.444;18.560;2023-05-17T10:59:24;15.35;;;2.63;;
28796;SDS011;24974;54.444;18.560;2023-05-17T11:02:04;7.95;;;2.33;;
28796;SDS011;24974;54.444;18.560;2023-05-17T11:09:52;15.98;;;3.38;;
28796;SDS011;24974;54.444;18.560;2023-05-17T11:12:28;8.82;;;3.10;;
28796;SDS011;24974;54.444;18.560;2023-05-17T11:22:59;8.75;;;3.15;;
28796;SDS011;24974;54.444;18.560;2023-05-17T11:25:38;11.13;;;2.63;;
28796;SDS011;24974;54.444;18.560;2023-05-17T11:28:27;10.45;;;3.00;;
28796;SDS011;24974;54.444;18.560;2023-05-17T11:31:01;11.00;;;3.13;;
28796;SDS011;24974;54.444;18.560;2023-05-17T11:33:50;13.50;;;4.10;;
28796;SDS011;24974;54.444;18.560;2023-05-17T11:36:23;11.23;;;3.17;;
28796;SDS011;24974;54.444;18.560;2023-05-17T11:41:48;14.75;;;3.40;;
28796;SDS011;24974;54.444;18.560;2023-05-17T11:47:06;11.10;;;3.05;;
28796;SDS011;24974;54.444;18.560;2023-05-17T11:49:40;11.07;;;3.20;;
28796;SDS011;24974;54.444;18.560;2023-05-17T11:52:12;18.17;;;3.33;;
28796;SDS011;24974;54.444;18.560;2023-05-17T11:54:47;14.57;;;3.78;;
28796;SDS011;24974;54.444;18.560;2023-05-17T11:57:18;8.50;;;2.80;;
28796;SDS011;24974;54.444;18.560;2023-05-17T11:59:57;10.18;;;3.05;;
28796;SDS011;24974;54.444;18.560;2023-05-17T12:02:29;10.27;;;3.38;;
28796;SDS011;24974;54.444;18.560;2023-05-17T12:05:01;10.13;;;3.28;;
28796;SDS011;24974;54.444;18.560;2023-05-17T12:07:32;10.32;;;3.40;;
28796;SDS011;24974;54.444;18.560;2023-05-17T12:10:04;12.02;;;4.53;;
28796;SDS011;24974;54.444;18.560;2023-05-17T12:12:35;12.48;;;3.90;;
28796;SDS011;24974;54.444;18.560;2023-05-17T12:15:06;12.82;;;3.45;;
28796;SDS011;24974;54.444;18.560;2023-05-17T12:17:39;23.30;;;9.30;;
28796;SDS011;24974;54.444;18.560;2023-05-17T12:20:14;16.83;;;4.15;;
28796;SDS011;24974;54.444;18.560;2023-05-17T12:22:52;15.68;;;3.75;;
28796;SDS011;24974;54.444;18.560;2023-05-17T12:25:23;13.18;;;4.10;;
28796;SDS011;24974;54.444;18.560;2023-05-17T12:30:44;12.27;;;3.40;;
28796;SDS011;24974;54.444;18.560;2023-05-17T12:33:15;11.90;;;4.25;;
28796;SDS011;24974;54.444;18.560;2023-05-17T12:35:46;14.35;;;3.83;;
28796;SDS011;24974;54.444;18.560;2023-05-17T12:38:17;13.73;;;3.65;;
28796;SDS011;24974;54.444;18.560;2023-05-17T12:40:49;11.45;;;2.88;;
28796;SDS011;24974;54.444;18.560;2023-05-17T12:43:22;11.45;;;3.53;;
28796;SDS011;24974;54.444;18.560;2023-05-17T12:45:53;12.50;;;4.22;;
28796;SDS011;24974;54.444;18.560;2023-05-17T12:48:25;12.80;;;3.60;;
28796;SDS011;24974;54.444;18.560;2023-05-17T12:50:56;13.88;;;3.35;;
28796;SDS011;24974;54.444;18.560;2023-05-17T12:53:33;7.78;;;2.83;;
28796;SDS011;24974;54.444;18.560;2023-05-17T12:56:06;11.73;;;3.42;;
28796;SDS011;24974;54.444;18.560;2023-05-17T12:58:37;11.65;;;3.53;;
28796;SDS011;24974;54.444;18.560;2023-05-17T13:01:08;9.27;;;2.78;;
28796;SDS011;24974;54.444;18.560;2023-05-17T13:03:48;10.27;;;2.88;;
28796;SDS011;24974;54.444;18.560;2023-05-17T13:06:20;8.85;;;3.25;;
28796;SDS011;24974;54.444;18.560;2023-05-17T13:08:58;8.43;;;2.90;;
28796;SDS011;24974;54.444;18.560;2023-05-17T13:11:30;7.20;;;2.88;;
28796;SDS011;24974;54.444;18.560;2023-05-17T13:14:03;11.57;;;3.00;;
28796;SDS011;24974;54.444;18.560;2023-05-17T13:16:37;16.63;;;3.78;;
28796;SDS011;24974;54.444;18.560;2023-05-17T13:19:12;12.30;;;3.47;;
28796;SDS011;24974;54.444;18.560;2023-05-17T13:21:43;9.10;;;2.97;;
28796;SDS011;24974;54.444;18.560;2023-05-17T13:24:14;8.52;;;2.78;;
28796;SDS011;24974;54.444;18.560;2023-05-17T13:26:45;8.68;;;2.67;;
28796;SDS011;24974;54.444;18.560;2023-05-17T13:29:16;7.05;;;2.15;;
28796;SDS011;24974;54.444;18.560;2023-05-17T13:31:47;12.55;;;2.75;;
28796;SDS011;24974;54.444;18.560;2023-05-17T13:34:18;9.43;;;2.75;;
28796;SDS011;24974;54.444;18.560;2023-05-17T13:36:51;11.50;;;2.80;;
28796;SDS011;24974;54.444;18.560;2023-05-17T13:39:22;8.43;;;2.85;;
28796;SDS011;24974;54.444;18.560;2023-05-17T13:41:53;10.95;;;2.70;;
28796;SDS011;24974;54.444;18.560;2023-05-17T13:44:24;8.07;;;2.63;;
28796;SDS011;24974;54.444;18.560;2023-05-17T13:46:55;8.95;;;2.90;;
28796;SDS011;24974;54.444;18.560;2023-05-17T13:49:26;13.23;;;2.95;;
28796;SDS011;24974;54.444;18.560;2023-05-17T13:51:57;6.50;;;2.28;;
28796;SDS011;24974;54.444;18.560;2023-05-17T13:54:29;9.40;;;3.40;;
28796;SDS011;24974;54.444;18.560;2023-05-17T13:57:00;9.32;;;2.88;;
28796;SDS011;24974;54.444;18.560;2023-05-17T13:59:31;6.25;;;1.95;;
28796;SDS011;24974;54.444;18.560;2023-05-17T14:02:02;7.38;;;2.55;;
28796;SDS011;24974;54.444;18.560;2023-05-17T14:04:33;8.63;;;2.53;;
28796;SDS011;24974;54.444;18.560;2023-05-17T14:07:04;8.27;;;2.60;;
28796;SDS011;24974;54.444;18.560;2023-05-17T14:09:35;7.35;;;2.08;;
28796;SDS011;24974;54.444;18.560;2023-05-17T14:12:06;11.40;;;3.40;;
28796;SDS011;24974;54.444;18.560;2023-05-17T14:14:37;11.07;;;2.70;;
28796;SDS011;24974;54.444;18.560;2023-05-17T14:17:08;10.75;;;2.50;;
28796;SDS011;24974;54.444;18.560;2023-05-17T14:19:39;7.68;;;2.05;;
28796;SDS011;24974;54.444;18.560;2023-05-17T14:22:09;10.45;;;2.72;;
28796;SDS011;24974;54.444;18.560;2023-05-17T14:24:40;13.65;;;2.97;;
28796;SDS011;24974;54.444;18.560;2023-05-17T14:27:11;6.43;;;2.45;;
28796;SDS011;24974;54.444;18.560;2023-05-17T14:29:42;9.93;;;2.78;;
28796;SDS011;24974;54.444;18.560;2023-05-17T14:32:13;10.45;;;2.60;;
28796;SDS011;24974;54.444;18.560;2023-05-17T14:34:44;7.32;;;2.40;;
28796;SDS011;24974;54.444;18.560;2023-05-17T14:37:15;14.23;;;3.20;;
28796;SDS011;24974;54.444;18.560;2023-05-17T14:39:46;9.70;;;2.78;;
28796;SDS011;24974;54.444;18.560;2023-05-17T14:42:17;14.93;;;2.70;;
28796;SDS011;24974;54.444;18.560;2023-05-17T14:44:48;9.38;;;2.20;;
28796;SDS011;24974;54.444;18.560;2023-05-17T14:47:19;9.55;;;2.42;;
28796;SDS011;24974;54.444;18.560;2023-05-17T14:49:51;8.15;;;2.00;;
28796;SDS011;24974;54.444;18.560;2023-05-17T14:52:22;9.15;;;2.50;;
28796;SDS011;24974;54.444;18.560;2023-05-17T14:54:53;13.45;;;3.67;;
28796;SDS011;24974;54.444;18.560;2023-05-17T14:57:24;10.25;;;2.67;;
28796;SDS011;24974;54.444;18.560;2023-05-17T14:59:55;9.68;;;2.45;;
28796;SDS011;24974;54.444;18.560;2023-05-17T15:02:26;8.93;;;2.40;;
28796;SDS011;24974;54.444;18.560;2023-05-17T15:04:58;12.20;;;2.72;;
28796;SDS011;24974;54.444;18.560;2023-05-17T15:07:28;7.85;;;2.15;;
28796;SDS011;24974;54.444;18.560;2023-05-17T15:10:00;9.30;;;2.50;;
28796;SDS011;24974;54.444;18.560;2023-05-17T15:12:32;15.73;;;2.80;;
28796;SDS011;24974;54.444;18.560;2023-05-17T15:15:03;8.10;;;2.63;;
28796;SDS011;24974;54.444;18.560;2023-05-17T15:17:35;13.13;;;2.70;;
28796;SDS011;24974;54.444;18.560;2023-05-17T15:20:06;9.38;;;2.50;;
28796;SDS011;24974;54.444;18.560;2023-05-17T15:22:37;10.35;;;4.10;;
28796;SDS011;24974;54.444;18.560;2023-05-17T15:25:08;10.95;;;2.60;;
28796;SDS011;24974;54.444;18.560;2023-05-17T15:27:39;10.25;;;2.92;;
28796;SDS011;24974;54.444;18.560;2023-05-17T15:30:10;8.68;;;2.50;;
28796;SDS011;24974;54.444;18.560;2023-05-17T15:32:41;14.25;;;2.83;;
28796;SDS011;24974;54.444;18.560;2023-05-17T15:35:12;9.07;;;2.20;;
28796;SDS011;24974;54.444;18.560;2023-05-17T15:37:43;9.43;;;1.95;;
28796;SDS011;24974;54.444;18.560;2023-05-17T15:40:19;10.15;;;2.53;;
28796;SDS011;24974;54.444;18.560;2023-05-17T15:42:54;10.85;;;2.35;;
28796;SDS011;24974;54.444;18.560;2023-05-17T15:45:24;13.88;;;2.50;;
28796;SDS011;24974;54.444;18.560;2023-05-17T15:47:55;8.90;;;2.30;;
28796;SDS011;24974;54.444;18.560;2023-05-17T15:50:26;7.25;;;2.30;;
28796;SDS011;24974;54.444;18.560;2023-05-17T15:52:57;7.85;;;2.35;;
28796;SDS011;24974;54.444;18.560;2023-05-17T15:55:28;12.15;;;2.13;;
28796;SDS011;24974;54.444;18.560;2023-05-17T15:57:58;4.20;;;2.15;;
28796;SDS011;24974;54.444;18.560;2023-05-17T16:00:29;9.45;;;2.55;;
28796;SDS011;24974;54.444;18.560;2023-05-17T16:03:00;6.95;;;2.30;;
28796;SDS011;24974;54.444;18.560;2023-05-17T16:05:31;10.20;;;2.60;;
28796;SDS011;24974;54.444;18.560;2023-05-17T16:08:03;7.50;;;2.00;;
28796;SDS011;24974;54.444;18.560;2023-05-17T16:10:34;11.90;;;4.50;;
28796;SDS011;24974;54.444;18.560;2023-05-17T16:13:05;7.25;;;2.28;;
28796;SDS011;24974;54.444;18.560;2023-05-17T16:15:36;8.40;;;2.70;;
28796;SDS011;24974;54.444;18.560;2023-05-17T16:18:07;10.10;;;2.47;;
28796;SDS011;24974;54.444;18.560;2023-05-17T16:21:04;6.78;;;2.50;;
28796;SDS011;24974;54.444;18.560;2023-05-17T16:23:35;7.00;;;2.90;;
28796;SDS011;24974;54.444;18.560;2023-05-17T16:26:06;11.07;;;2.58;;
28796;SDS011;24974;54.444;18.560;2023-05-17T16:28:38;7.90;;;2.63;;
28796;SDS011;24974;54.444;18.560;2023-05-17T16:31:09;8.98;;;3.00;;
28796;SDS011;24974;54.444;18.560;2023-05-17T16:33:40;9.23;;;2.15;;
28796;SDS011;24974;54.444;18.560;2023-05-17T16:36:11;9.25;;;2.40;;
28796;SDS011;24974;54.444;18.560;2023-05-17T16:38:42;8.55;;;2.63;;
28796;SDS011;24974;54.444;18.560;2023-05-17T16:41:13;12.52;;;2.50;;
28796;SDS011;24974;54.444;18.560;2023-05-17T16:43:43;15.35;;;6.32;;
28796;SDS011;24974;54.444;18.560;2023-05-17T16:46:15;8.02;;;2.10;;
28796;SDS011;24974;54.444;18.560;2023-05-17T16:48:47;8.88;;;2.28;;
28796;SDS011;24974;54.444;18.560;2023-05-17T16:51:17;6.38;;;2.47;;
28796;SDS011;24974;54.444;18.560;2023-05-17T16:53:48;9.25;;;2.33;;
28796;SDS011;24974;54.444;18.560;2023-05-17T16:56:19;10.10;;;2.55;;
28796;SDS011;24974;54.444;18.560;2023-05-17T16:58:51;7.43;;;2.20;;
28796;SDS011;24974;54.444;18.560;2023-05-17T17:01:22;8.93;;;2.33;;
28796;SDS011;24974;54.444;18.560;2023-05-17T17:03:52;14.57;;;2.70;;
28796;SDS011;24974;54.444;18.560;2023-05-17T17:06:25;8.02;;;2.65;;
28796;SDS011;24974;54.444;18.560;2023-05-17T17:08:56;9.98;;;2.10;;
28796;SDS011;24974;54.444;18.560;2023-05-17T17:11:27;12.25;;;2.75;;
28796;SDS011;24974;54.444;18.560;2023-05-17T17:13:58;9.43;;;2.53;;
28796;SDS011;24974;54.444;18.560;2023-05-17T17:16:29;9.95;;;2.50;;
28796;SDS011;24974;54.444;18.560;2023-05-17T17:19:01;9.32;;;2.40;;
28796;SDS011;24974;54.444;18.560;2023-05-17T17:21:33;7.95;;;2.15;;
28796;SDS011;24974;54.444;18.560;2023-05-17T17:24:07;10.68;;;2.78;;
28796;SDS011;24974;54.444;18.560;2023-05-17T17:26:38;8.07;;;2.47;;
28796;SDS011;24974;54.444;18.560;2023-05-17T17:29:09;11.25;;;5.85;;
28796;SDS011;24974;54.444;18.560;2023-05-17T17:31:40;11.15;;;3.67;;
28796;SDS011;24974;54.444;18.560;2023-05-17T17:34:10;11.20;;;2.97;;
28796;SDS011;24974;54.444;18.560;2023-05-17T17:36:41;13.55;;;3.17;;
28796;SDS011;24974;54.444;18.560;2023-05-17T17:39:13;7.53;;;2.50;;
28796;SDS011;24974;54.444;18.560;2023-05-17T17:41:46;8.20;;;2.78;;
28796;SDS011;24974;54.444;18.560;2023-05-17T17:44:17;10.93;;;2.63;;
28796;SDS011;24974;54.444;18.560;2023-05-17T17:46:48;9.32;;;2.83;;
28796;SDS011;24974;54.444;18.560;2023-05-17T17:49:19;9.85;;;3.42;;
28796;SDS011;24974;54.444;18.560;2023-05-17T17:51:50;13.13;;;2.85;;
28796;SDS011;24974;54.444;18.560;2023-05-17T17:54:21;7.30;;;2.53;;
28796;SDS011;24974;54.444;18.560;2023-05-17T17:56:51;9.35;;;2.58;;
28796;SDS011;24974;54.444;18.560;2023-05-17T17:59:22;14.45;;;3.20;;
28796;SDS011;24974;54.444;18.560;2023-05-17T18:01:53;9.70;;;2.58;;
28796;SDS011;24974;54.444;18.560;2023-05-17T18:04:24;11.15;;;2.50;;
28796;SDS011;24974;54.444;18.560;2023-05-17T18:06:55;9.93;;;2.95;;
28796;SDS011;24974;54.444;18.560;2023-05-17T18:09:26;10.45;;;2.45;;
28796;SDS011;24974;54.444;18.560;2023-05-17T18:11:57;12.73;;;2.60;;
28796;SDS011;24974;54.444;18.560;2023-05-17T18:14:28;7.60;;;3.00;;
28796;SDS011;24974;54.444;18.560;2023-05-17T18:16:59;10.52;;;2.53;;
28796;SDS011;24974;54.444;18.560;2023-05-17T18:19:30;12.38;;;2.95;;
28796;SDS011;24974;54.444;18.560;2023-05-17T18:22:01;8.63;;;2.30;;
28796;SDS011;24974;54.444;18.560;2023-05-17T18:24:32;9.05;;;2.70;;
28796;SDS011;24974;54.444;18.560;2023-05-17T18:27:02;8.93;;;2.45;;
28796;SDS011;24974;54.444;18.560;2023-05-17T18:29:33;10.80;;;2.95;;
28796;SDS011;24974;54.444;18.560;2023-05-17T18:32:04;12.57;;;2.45;;
28796;SDS011;24974;54.444;18.560;2023-05-17T18:34:36;8.10;;;2.58;;
28796;SDS011;24974;54.444;18.560;2023-05-17T18:37:07;12.70;;;2.80;;
28796;SDS011;24974;54.444;18.560;2023-05-17T18:39:38;7.85;;;3.03;;
28796;SDS011;24974;54.444;18.560;2023-05-17T18:42:08;9.50;;;2.90;;
28796;SDS011;24974;54.444;18.560;2023-05-17T18:44:39;6.63;;;2.75;;
28796;SDS011;24974;54.444;18.560;2023-05-17T18:47:10;8.93;;;2.72;;
28796;SDS011;24974;54.444;18.560;2023-05-17T18:49:41;9.98;;;3.22;;
28796;SDS011;24974;54.444;18.560;2023-05-17T18:52:15;12.68;;;3.25;;
28796;SDS011;24974;54.444;18.560;2023-05-17T18:54:46;7.15;;;2.80;;
28796;SDS011;24974;54.444;18.560;2023-05-17T18:57:17;12.98;;;3.80;;
28796;SDS011;24974;54.444;18.560;2023-05-17T18:59:48;9.30;;;3.15;;
28796;SDS011;24974;54.444;18.560;2023-05-17T19:02:18;12.35;;;4.10;;
28796;SDS011;24974;54.444;18.560;2023-05-17T19:04:49;10.27;;;3.38;;
28796;SDS011;24974;54.444;18.560;2023-05-17T19:07:20;11.73;;;3.40;;
28796;SDS011;24974;54.444;18.560;2023-05-17T19:09:51;7.88;;;3.08;;
28796;SDS011;24974;54.444;18.560;2023-05-17T19:12:21;8.93;;;3.40;;
28796;SDS011;24974;54.444;18.560;2023-05-17T19:14:52;8.05;;;3.00;;
28796;SDS011;24974;54.444;18.560;2023-05-17T19:17:23;12.38;;;3.08;;
28796;SDS011;24974;54.444;18.560;2023-05-17T19:19:53;9.38;;;3.00;;
28796;SDS011;24974;54.444;18.560;2023-05-17T19:22:24;15.65;;;3.22;;
28796;SDS011;24974;54.444;18.560;2023-05-17T19:24:55;15.05;;;3.65;;
28796;SDS011;24974;54.444;18.560;2023-05-17T19:27:26;13.07;;;3.85;;
28796;SDS011;24974;54.444;18.560;2023-05-17T19:29:57;12.23;;;3.22;;
28796;SDS011;24974;54.444;18.560;2023-05-17T19:32:27;12.85;;;3.67;;
28796;SDS011;24974;54.444;18.560;2023-05-17T19:35:02;12.93;;;3.97;;
28796;SDS011;24974;54.444;18.560;2023-05-17T19:37:33;8.55;;;3.30;;
28796;SDS011;24974;54.444;18.560;2023-05-17T19:40:04;11.52;;;3.25;;
28796;SDS011;24974;54.444;18.560;2023-05-17T19:42:35;11.00;;;3.55;;
28796;SDS011;24974;54.444;18.560;2023-05-17T19:45:06;12.07;;;3.80;;
28796;SDS011;24974;54.444;18.560;2023-05-17T19:47:40;11.00;;;3.72;;
28796;SDS011;24974;54.444;18.560;2023-05-17T19:50:12;7.68;;;3.30;;
28796;SDS011;24974;54.444;18.560;2023-05-17T19:52:42;8.07;;;3.55;;
28796;SDS011;24974;54.444;18.560;2023-05-17T19:55:14;13.95;;;3.40;;
28796;SDS011;24974;54.444;18.560;2023-05-17T20:00:21;12.18;;;3.10;;
28796;SDS011;24974;54.444;18.560;2023-05-17T20:02:52;10.18;;;3.30;;
28796;SDS011;24974;54.444;18.560;2023-05-17T20:05:23;11.85;;;3.72;;
28796;SDS011;24974;54.444;18.560;2023-05-17T20:07:57;12.73;;;3.28;;
28796;SDS011;24974;54.444;18.560;2023-05-17T20:10:28;14.07;;;4.00;;
28796;SDS011;24974;54.444;18.560;2023-05-17T20:13:02;7.95;;;3.75;;
28796;SDS011;24974;54.444;18.560;2023-05-17T20:15:33;11.23;;;3.45;;
28796;SDS011;24974;54.444;18.560;2023-05-17T20:18:04;9.38;;;3.13;;
28796;SDS011;24974;54.444;18.560;2023-05-17T20:20:37;7.35;;;3.15;;
28796;SDS011;24974;54.444;18.560;2023-05-17T20:23:08;13.05;;;3.65;;
28796;SDS011;24974;54.444;18.560;2023-05-17T20:25:38;9.38;;;3.60;;
28796;SDS011;24974;54.444;18.560;2023-05-17T20:28:11;6.65;;;3.45;;
28796;SDS011;24974;54.444;18.560;2023-05-17T20:30:42;7.00;;;2.78;;
28796;SDS011;24974;54.444;18.560;2023-05-17T20:33:14;10.75;;;4.10;;
28796;SDS011;24974;54.444;18.560;2023-05-17T20:35:45;10.30;;;3.50;;
28796;SDS011;24974;54.444;18.560;2023-05-17T20:38:16;9.65;;;3.60;;
28796;SDS011;24974;54.444;18.560;2023-05-17T20:40:47;11.60;;;3.58;;
28796;SDS011;24974;54.444;18.560;2023-05-17T20:43:18;9.10;;;3.47;;
28796;SDS011;24974;54.444;18.560;2023-05-17T20:45:49;9.68;;;2.80;;
28796;SDS011;24974;54.444;18.560;2023-05-17T20:48:23;13.75;;;3.85;;
28796;SDS011;24974;54.444;18.560;2023-05-17T20:50:53;13.15;;;3.70;;
28796;SDS011;24974;54.444;18.560;2023-05-17T20:53:24;8.98;;;3.38;;
28796;SDS011;24974;54.444;18.560;2023-05-17T20:55:55;10.48;;;3.10;;
28796;SDS011;24974;54.444;18.560;2023-05-17T20:58:26;11.75;;;3.85;;
28796;SDS011;24974;54.444;18.560;2023-05-17T21:01:00;14.93;;;3.97;;
28796;SDS011;24974;54.444;18.560;2023-05-17T21:03:31;12.20;;;3.30;;
28796;SDS011;24974;54.444;18.560;2023-05-17T21:06:03;10.93;;;3.80;;